Time;durP1;ratioP1;P1;durP2;ratioP2;P2;SDS_P1;SDS_P2;PMS_P1;PMS_P2;Temp;Humidity;BMP_temperature;BMP_pressure;BME280_temperature;BME280_humidity;BME280_pressure;Samples;Min_cycle;Max_cycle;Signal;HPM_P1;HPM_P2
2023/03/31 00:00:28;;;;;;;;;;;;;;;29.54;20.24;100897.13;5069572;28;1914;-32
2023/03/31 00:02:54;;;;;;;;;;;;;;;29.64;20.26;100893.25;5067719;28;1052;-32
2023/03/31 00:05:23;;;;;;;;;;;;;;;29.64;20.35;100885.13;5057902;28;1163;-33
2023/03/31 00:07:52;;;;;;;;;;;;;;;29.68;20.24;100881.81;5078270;28;1102;-35
2023/03/31 00:10:18;;;;;;;;;;;;;;;28.78;21.04;100883.03;5078461;28;1079;-34
2023/03/31 00:12:43;;;;;;;;;;;;;;;28.88;20.69;100877.28;5078941;28;1410;-34
2023/03/31 00:15:09;;;;;;;;;;;;;;;29.32;20.53;100871.91;5078791;28;1042;-31
2023/03/31 00:17:35;;;;;;;;;;;;;;;29.39;20.40;100866.56;5078701;28;1075;-36
2023/03/31 00:20:11;;;;;;;;;;;;;;;29.21;20.71;100865.97;5078409;28;1906;-33
2023/03/31 00:22:37;;;;;;;;;;;;;;;29.17;20.88;100866.56;5078479;28;1074;-30
2023/03/31 00:25:04;;;;;;;;;;;;;;;29.06;20.83;100860.63;5071040;28;932;-35
2023/03/31 00:27:29;;;;;;;;;;;;;;;29.24;20.69;100862.06;5072551;28;1040;-34
2023/03/31 00:29:55;;;;;;;;;;;;;;;29.39;20.53;100864.69;5078487;28;1114;-34
2023/03/31 00:32:21;;;;;;;;;;;;;;;29.61;20.35;100855.69;5078605;28;1075;-29
2023/03/31 00:34:46;;;;;;;;;;;;;;;29.71;20.21;100848.06;5078807;28;1132;-32
2023/03/31 00:37:13;;;;;;;;;;;;;;;29.91;19.96;100847.34;5065003;28;913;-30
2023/03/31 00:39:40;;;;;;;;;;;;;;;30.03;19.71;100836.78;5066282;28;2225;-26
2023/03/31 00:42:11;;;;;;;;;;;;;;;29.90;19.97;100842.94;5060417;28;1123;-33
2023/03/31 00:44:57;;;;;;;;;;;;;;;28.50;21.59;100835.03;5078375;28;1218;-32
2023/03/31 00:47:23;;;;;;;;;;;;;;;29.22;21.06;100839.75;5048883;28;1215;-31
2023/03/31 00:49:50;;;;;;;;;;;;;;;29.57;20.36;100836.25;5049024;28;1130;-30
2023/03/31 00:52:22;;;;;;;;;;;;;;;29.60;20.38;100835.88;5040447;28;1215;-34
2023/03/31 00:54:49;;;;;;;;;;;;;;;29.56;20.75;100831.88;5054052;28;1056;-32
2023/03/31 00:57:14;;;;;;;;;;;;;;;29.52;20.61;100823.28;5078241;28;1054;-33
2023/03/31 00:59:42;;;;;;;;;;;;;;;29.50;20.77;100817.22;5077373;28;1909;-32
2023/03/31 01:02:07;;;;;;;;;;;;;;;28.72;21.57;100816.97;5043388;28;1091;-28
2023/03/31 01:04:41;;;;;;;;;;;;;;;28.80;21.46;100812.44;5060169;28;1042;-32
2023/03/31 01:07:17;;;;;;;;;;;;;;;29.37;20.87;100800.88;5060333;28;1123;-32
2023/03/31 01:09:46;;;;;;;;;;;;;;;29.35;20.76;100809.19;5078004;28;1090;-33
2023/03/31 01:12:13;;;;;;;;;;;;;;;29.20;21.19;100804.72;5077376;28;1050;-31
2023/03/31 01:14:39;;;;;;;;;;;;;;;29.06;21.12;100803.75;5064131;28;1409;-32
2023/03/31 01:17:08;;;;;;;;;;;;;;;29.09;21.32;100805.25;5077458;28;1194;-31
2023/03/31 01:19:54;;;;;;;;;;;;;;;29.26;21.05;100802.25;5077721;28;1909;-35
2023/03/31 01:22:31;;;;;;;;;;;;;;;29.41;20.90;100792.13;5008960;28;1338;-35
2023/03/31 01:25:00;;;;;;;;;;;;;;;29.64;20.64;100791.09;5063661;28;861;-34
2023/03/31 01:27:32;;;;;;;;;;;;;;;29.73;20.44;100790.94;5039818;28;1202;-33
2023/03/31 01:30:10;;;;;;;;;;;;;;;29.84;20.31;100784.94;5043088;28;1059;-31
2023/03/31 01:32:38;;;;;;;;;;;;;;;29.96;20.11;100781.66;5076897;28;1043;-27
2023/03/31 01:35:04;;;;;;;;;;;;;;;28.53;21.33;100787.84;5059416;28;1059;-34
2023/03/31 01:37:39;;;;;;;;;;;;;;;28.15;22.25;100772.56;5055500;28;1202;-34
2023/03/31 01:40:21;;;;;;;;;;;;;;;30.10;19.75;100768.97;5039494;28;1906;-33
2023/03/31 01:43:16;;;;;;;;;;;;;;;28.32;21.75;100757.81;5066371;28;1050;-34
2023/03/31 01:45:44;;;;;;;;;;;;;;;28.99;21.41;100762.25;5048918;28;1427;-34
2023/03/31 01:48:17;;;;;;;;;;;;;;;29.17;21.09;100766.34;5076884;28;1225;-30
2023/03/31 01:50:54;;;;;;;;;;;;;;;29.02;21.10;100759.16;5040240;28;1031;-28
2023/03/31 01:53:40;;;;;;;;;;;;;;;29.05;21.21;100757.91;5039580;28;1135;-29
2023/03/31 01:56:26;;;;;;;;;;;;;;;28.98;21.18;100754.34;5055605;28;1505;-31
2023/03/31 01:59:11;;;;;;;;;;;;;;;29.09;21.28;100751.09;5058341;28;1910;-35
2023/03/31 02:01:47;;;;;;;;;;;;;;;29.25;21.01;100746.38;5073645;28;1218;-29
2023/03/31 02:04:24;;;;;;;;;;;;;;;29.41;20.71;100745.25;5049877;28;1072;-32
2023/03/31 02:06:55;;;;;;;;;;;;;;;29.61;20.53;100742.69;5059221;28;1159;-32
2023/03/31 02:09:22;;;;;;;;;;;;;;;29.78;20.40;100739.66;5059416;28;1150;-27
2023/03/31 02:11:47;;;;;;;;;;;;;;;29.93;20.29;100732.19;5042376;28;1214;-34
2023/03/31 02:14:18;;;;;;;;;;;;;;;28.82;21.22;100718.34;5046197;28;1078;-28
2023/03/31 02:16:46;;;;;;;;;;;;;;;28.15;22.65;100715.78;5042787;28;1083;-31
2023/03/31 02:19:12;;;;;;;;;;;;;;;29.49;20.97;100704.44;5039420;28;1910;-31
2023/03/31 02:21:38;;;;;;;;;;;;;;;28.93;20.81;100608.66;5076316;28;1062;-34
2023/03/31 02:24:05;;;;;;;;;;;;;;;29.50;20.80;100702.56;5077021;28;1103;-29
2023/03/31 02:26:32;;;;;;;;;;;;;;;29.39;20.97;100693.97;5058826;28;1166;-33
2023/03/31 02:28:58;;;;;;;;;;;;;;;29.25;20.92;100695.75;5057741;28;1161;-29
2023/03/31 02:31:27;;;;;;;;;;;;;;;28.66;21.64;100695.09;5058452;28;1225;-29
2023/03/31 02:33:52;;;;;;;;;;;;;;;27.86;22.59;100694.88;5058655;28;1331;-27
2023/03/31 02:36:18;;;;;;;;;;;;;;;28.89;21.55;100699.44;5058418;28;1214;-31
2023/03/31 02:38:48;;;;;;;;;;;;;;;29.65;20.46;100687.03;5058510;28;1910;-32
2023/03/31 02:41:14;;;;;;;;;;;;;;;29.92;20.21;100694.44;5041618;28;1048;-29
2023/03/31 02:43:40;;;;;;;;;;;;;;;29.51;20.63;100686.09;5057639;28;2423;-34
2023/03/31 02:46:05;;;;;;;;;;;;;;;29.41;20.81;100688.34;5058431;28;1175;-33
2023/03/31 02:48:38;;;;;;;;;;;;;;;29.20;21.12;100695.50;5076118;28;1043;-31
2023/03/31 02:51:08;;;;;;;;;;;;;;;29.31;21.01;100689.53;5058067;28;1071;-27
2023/03/31 02:53:42;;;;;;;;;;;;;;;28.93;21.32;100681.75;5041618;28;1981;-32
2023/03/31 02:56:26;;;;;;;;;;;;;;;28.03;22.38;100680.31;5058529;28;1108;-31
2023/03/31 02:59:02;;;;;;;;;;;;;;;29.14;21.29;100677.34;5075944;28;1906;-29
2023/03/31 03:01:40;;;;;;;;;;;;;;;29.27;21.18;100674.72;5074551;28;1070;-35
2023/03/31 03:04:33;;;;;;;;;;;;;;;29.22;21.29;100671.78;5047013;28;1279;-33
2023/03/31 03:07:02;;;;;;;;;;;;;;;29.19;21.10;100667.59;5041792;28;1242;-35
2023/03/31 03:09:40;;;;;;;;;;;;;;;29.14;21.36;100677.34;5044574;28;1028;-29
2023/03/31 03:12:33;;;;;;;;;;;;;;;29.17;21.22;100660.69;5046916;28;1859;-31
2023/03/31 03:14:58;;;;;;;;;;;;;;;28.46;21.83;100660.59;5058069;28;1403;-30
2023/03/31 03:17:24;;;;;;;;;;;;;;;27.75;22.76;100649.41;5057213;28;1149;-31
2023/03/31 03:19:50;;;;;;;;;;;;;;;29.14;21.10;100651.13;5075617;28;1910;-35
2023/03/31 03:22:16;;;;;;;;;;;;;;;29.24;21.18;100645.34;5075890;28;1110;-33
2023/03/31 03:24:41;;;;;;;;;;;;;;;29.53;20.65;100640.66;5075363;28;1054;-28
2023/03/31 03:27:07;;;;;;;;;;;;;;;29.32;20.79;100653.31;5075801;28;1125;-32
2023/03/31 03:29:32;;;;;;;;;;;;;;;29.26;21.06;100645.13;5075559;28;1102;-30
2023/03/31 03:31:58;;;;;;;;;;;;;;;28.88;21.26;100647.16;5075602;28;1545;-32
2023/03/31 03:34:24;;;;;;;;;;;;;;;28.07;22.41;100647.28;5075368;28;1058;-34
2023/03/31 03:36:50;;;;;;;;;;;;;;;28.53;21.92;100639.00;5075753;28;1098;-33
2023/03/31 03:39:16;;;;;;;;;;;;;;;28.75;21.02;100634.38;5060406;28;1918;-34
2023/03/31 03:41:41;;;;;;;;;;;;;;;27.51;21.33;100643.28;5068304;28;1111;-35
2023/03/31 03:44:07;;;;;;;;;;;;;;;27.05;19.72;100644.31;5079035;28;1063;-31
2023/03/31 03:46:33;;;;;;;;;;;;;;;26.88;18.40;100641.75;5079463;28;1043;-31
2023/03/31 03:48:58;;;;;;;;;;;;;;;26.74;17.15;100641.53;5076030;28;1007;-35
2023/03/31 03:51:24;;;;;;;;;;;;;;;27.03;16.69;100636.41;5068492;28;1083;-35
2023/03/31 03:53:49;;;;;;;;;;;;;;;27.92;15.92;100630.25;5079047;28;1125;-34
2023/03/31 03:56:15;;;;;;;;;;;;;;;28.27;16.23;100637.69;5078963;28;1122;-34
2023/03/31 03:58:40;;;;;;;;;;;;;;;28.41;16.20;100633.28;5077611;28;1975;-35
2023/03/31 04:01:06;;;;;;;;;;;;;;;28.69;15.86;100635.16;5077779;28;1157;-33
2023/03/31 04:03:32;;;;;;;;;;;;;;;28.96;16.27;100630.75;5078200;28;1027;-34
2023/03/31 04:05:57;;;;;;;;;;;;;;;29.28;16.47;100629.53;5077833;28;1044;-33
2023/03/31 04:08:23;;;;;;;;;;;;;;;29.50;16.76;100626.69;5078028;28;1056;-35
2023/03/31 04:10:49;;;;;;;;;;;;;;;29.61;16.74;100615.31;5078059;28;1035;-31
2023/03/31 04:13:14;;;;;;;;;;;;;;;29.72;16.88;100616.56;5078661;28;1137;-33
2023/03/31 04:15:40;;;;;;;;;;;;;;;29.69;17.13;100620.53;5062370;28;1066;-32
2023/03/31 04:18:09;;;;;;;;;;;;;;;27.75;19.80;100617.00;5068564;28;1158;-32
2023/03/31 04:20:38;;;;;;;;;;;;;;;27.41;20.19;100627.34;5072001;28;1909;-32
2023/03/31 04:23:08;;;;;;;;;;;;;;;27.66;20.22;100618.94;5059156;28;1218;-35
2023/03/31 04:25:37;;;;;;;;;;;;;;;26.75;21.56;100612.72;5062263;28;1230;-31
2023/03/31 04:28:05;;;;;;;;;;;;;;;26.56;21.98;100614.06;5058626;28;1426;-34
2023/03/31 04:30:31;;;;;;;;;;;;;;;26.47;22.22;100600.66;5058720;28;1190;-35
2023/03/31 04:33:01;;;;;;;;;;;;;;;26.48;22.22;100602.31;5068436;28;1062;-29
2023/03/31 04:35:48;;;;;;;;;;;;;;;26.53;21.93;100607.16;5065246;28;1119;-35
2023/03/31 04:38:13;;;;;;;;;;;;;;;26.00;21.14;100606.03;5071907;28;1567;-32
2023/03/31 04:40:40;;;;;;;;;;;;;;;27.17;21.70;100606.88;5078197;28;1965;-30
2023/03/31 04:43:05;;;;;;;;;;;;;;;26.34;23.26;100606.66;5076432;28;1564;-30
2023/03/31 04:45:31;;;;;;;;;;;;;;;26.09;24.13;100606.00;5076287;28;1166;-35
2023/03/31 04:47:56;;;;;;;;;;;;;;;26.76;23.02;100600.88;5075968;28;1063;-36
2023/03/31 04:50:22;;;;;;;;;;;;;;;27.02;22.70;100602.34;5068242;28;970;-37
2023/03/31 04:52:48;;;;;;;;;;;;;;;27.23;23.00;100606.13;5070460;28;1028;-30
2023/03/31 04:55:13;;;;;;;;;;;;;;;27.54;22.58;100599.69;5069759;28;1043;-36
2023/03/31 04:57:39;;;;;;;;;;;;;;;26.72;23.50;100589.63;5056475;28;1099;-30
2023/03/31 05:00:07;;;;;;;;;;;;;;;26.44;23.95;100590.25;5072043;28;1971;-36
2023/03/31 05:02:33;;;;;;;;;;;;;;;26.95;23.53;100594.13;5062021;28;1253;-35
2023/03/31 05:04:59;;;;;;;;;;;;;;;27.18;22.99;100586.97;5078284;28;1155;-34
2023/03/31 05:07:25;;;;;;;;;;;;;;;27.45;22.34;100581.91;5077878;28;1121;-35
2023/03/31 05:09:50;;;;;;;;;;;;;;;27.07;23.25;100582.88;5059319;28;1191;-31
2023/03/31 05:12:16;;;;;;;;;;;;;;;26.47;23.52;100562.91;5058579;28;1048;-36
2023/03/31 05:14:41;;;;;;;;;;;;;;;27.02;23.35;100575.34;5070938;28;1091;-35
2023/03/31 05:17:07;;;;;;;;;;;;;;;27.31;22.96;100575.50;5068788;28;1126;-29
2023/03/31 05:19:33;;;;;;;;;;;;;;;27.19;22.75;100565.19;5077466;28;1980;-36
2023/03/31 05:21:58;;;;;;;;;;;;;;;27.47;22.92;100566.34;5066988;28;1090;-36
2023/03/31 05:24:24;;;;;;;;;;;;;;;26.95;23.43;100560.88;5057536;28;1182;-35
2023/03/31 05:26:51;;;;;;;;;;;;;;;27.10;23.43;100558.19;5081973;28;907;-35
2023/03/31 05:29:20;;;;;;;;;;;;;;;27.33;22.91;100557.22;5066042;28;1165;-35
2023/03/31 05:31:46;;;;;;;;;;;;;;;26.87;23.66;100549.16;5077981;28;1377;-36
2023/03/31 05:34:11;;;;;;;;;;;;;;;27.57;22.83;100547.13;5077496;28;1218;-36
2023/03/31 05:36:37;;;;;;;;;;;;;;;27.01;23.34;100539.41;5068030;28;1051;-33
2023/03/31 05:39:06;;;;;;;;;;;;;;;27.13;23.28;100544.31;5071133;28;1898;-36
2023/03/31 05:41:32;;;;;;;;;;;;;;;27.36;23.18;100555.00;5077563;28;1058;-35
2023/03/31 05:43:58;;;;;;;;;;;;;;;26.92;23.76;100553.16;5076723;28;1210;-27
2023/03/31 05:46:25;;;;;;;;;;;;;;;27.34;23.09;100554.34;5077290;28;1281;-36
2023/03/31 05:48:51;;;;;;;;;;;;;;;26.99;23.44;100557.59;5075408;28;1125;-32
2023/03/31 05:51:16;;;;;;;;;;;;;;;27.20;23.71;100553.34;5076797;28;978;-36
2023/03/31 05:53:42;;;;;;;;;;;;;;;26.72;22.83;100454.72;5076953;28;1034;-34
2023/03/31 05:56:08;;;;;;;;;;;;;;;27.34;23.43;100551.63;5077113;28;1035;-34
2023/03/31 05:58:35;;;;;;;;;;;;;;;26.78;23.85;100550.25;5076540;28;1910;-36
2023/03/31 06:01:22;;;;;;;;;;;;;;;27.06;23.77;100548.81;5076803;28;1174;-35
2023/03/31 06:03:48;;;;;;;;;;;;;;;27.63;23.22;100549.06;5064198;28;924;-36
2023/03/31 06:06:13;;;;;;;;;;;;;;;27.09;23.29;100548.44;5056098;28;1201;-36
2023/03/31 06:08:39;;;;;;;;;;;;;;;27.67;23.05;100546.81;5068010;28;1102;-36
2023/03/31 06:11:09;;;;;;;;;;;;;;;27.07;23.91;100548.63;5071579;28;1544;-34
2023/03/31 06:13:35;;;;;;;;;;;;;;;27.31;23.66;100545.81;5056675;28;1186;-33
2023/03/31 06:16:00;;;;;;;;;;;;;;;27.55;23.18;100543.75;5076266;28;913;-34
2023/03/31 06:18:27;;;;;;;;;;;;;;;27.15;23.34;100539.56;5076617;28;1043;-35
2023/03/31 06:20:53;;;;;;;;;;;;;;;27.39;23.07;100535.69;5076210;28;1134;-36
2023/03/31 06:23:18;;;;;;;;;;;;;;;27.60;22.91;100539.47;5076546;28;1058;-36
2023/03/31 06:25:44;;;;;;;;;;;;;;;28.69;21.59;100533.16;5075957;28;1181;-30
2023/03/31 06:28:10;;;;;;;;;;;;;;;28.60;21.68;100528.91;5062640;28;1021;-33
2023/03/31 06:30:35;;;;;;;;;;;;;;;28.53;21.80;100531.56;5066352;28;1238;-33
2023/03/31 06:33:01;;;;;;;;;;;;;;;28.73;21.45;100530.84;5076232;28;1302;-36
2023/03/31 06:35:26;;;;;;;;;;;;;;;28.84;21.45;100534.91;5061231;28;1297;-35
2023/03/31 06:37:52;;;;;;;;;;;;;;;28.95;21.52;100526.19;5056633;28;1241;-38
2023/03/31 06:40:18;;;;;;;;;;;;;;;29.25;21.13;100532.38;5076234;28;1981;-35
2023/03/31 06:42:43;;;;;;;;;;;;;;;29.48;20.91;100525.78;5069886;28;1076;-35
2023/03/31 06:45:09;;;;;;;;;;;;;;;29.47;20.74;100530.38;5055944;28;1143;-34
2023/03/31 06:47:37;;;;;;;;;;;;;;;29.42;20.69;100530.16;5075628;28;1147;-31
2023/03/31 06:50:03;;;;;;;;;;;;;;;29.19;21.01;100523.19;5075720;28;1104;-34
2023/03/31 06:52:29;;;;;;;;;;;;;;;27.81;22.53;100527.03;5056318;28;1207;-36
2023/03/31 06:54:55;;;;;;;;;;;;;;;27.56;22.95;100534.66;5055962;28;1143;-30
2023/03/31 06:57:20;;;;;;;;;;;;;;;29.32;21.18;100531.38;5075802;28;1087;-27
2023/03/31 06:59:46;;;;;;;;;;;;;;;29.17;20.61;100528.81;5076079;28;1983;-35
2023/03/31 07:02:12;;;;;;;;;;;;;;;27.14;23.02;100537.91;5075898;28;1127;-29
2023/03/31 07:04:37;;;;;;;;;;;;;;;27.21;23.74;100532.59;5073897;28;1441;-36
2023/03/31 07:07:03;;;;;;;;;;;;;;;28.98;21.32;100535.81;5075452;28;1086;-30
2023/03/31 07:09:28;;;;;;;;;;;;;;;29.00;21.37;100524.78;5076166;28;1113;-35
2023/03/31 07:11:54;;;;;;;;;;;;;;;29.11;21.27;100535.06;5059707;28;1043;-36
2023/03/31 07:14:21;;;;;;;;;;;;;;;28.99;21.31;100536.66;5057680;28;1179;-35
2023/03/31 07:16:47;;;;;;;;;;;;;;;29.14;21.13;100534.66;5079610;28;1174;-35
2023/03/31 07:19:14;;;;;;;;;;;;;;;28.28;21.76;100528.47;5080162;28;1914;-33
2023/03/31 07:21:40;;;;;;;;;;;;;;;27.86;22.50;100516.47;5079919;28;1161;-35
2023/03/31 07:24:05;;;;;;;;;;;;;;;28.61;21.98;100517.06;5080303;28;1059;-34
2023/03/31 07:26:31;;;;;;;;;;;;;;;29.16;21.17;100520.91;5079331;28;1154;-35
2023/03/31 07:28:57;;;;;;;;;;;;;;;29.21;21.12;100518.44;5065869;28;1070;-32
2023/03/31 07:31:23;;;;;;;;;;;;;;;29.42;20.85;100511.19;5076651;28;1230;-34
2023/03/31 07:33:48;;;;;;;;;;;;;;;29.30;20.87;100513.63;5079655;28;1198;-35
2023/03/31 07:36:14;;;;;;;;;;;;;;;29.26;21.00;100518.63;5079480;28;1106;-36
2023/03/31 07:38:44;;;;;;;;;;;;;;;27.46;22.97;100516.06;5064773;28;1902;-36
2023/03/31 07:41:13;;;;;;;;;;;;;;;27.66;23.04;100516.25;5066657;28;1110;-33
2023/03/31 07:43:39;;;;;;;;;;;;;;;29.37;20.83;100517.22;5079889;28;1184;-36
2023/03/31 07:46:06;;;;;;;;;;;;;;;29.54;20.49;100527.69;5079209;28;1008;-36
2023/03/31 07:48:32;;;;;;;;;;;;;;;27.35;22.89;100520.06;5079466;28;1125;-35
2023/03/31 07:50:58;;;;;;;;;;;;;;;27.85;22.85;100519.38;5079617;28;1221;-35
2023/03/31 07:53:29;;;;;;;;;;;;;;;29.19;21.16;100515.06;5048068;28;1363;-29
2023/03/31 07:55:55;;;;;;;;;;;;;;;29.25;20.85;100516.13;5079419;28;1070;-28
2023/03/31 07:58:20;;;;;;;;;;;;;;;27.25;23.32;100514.97;5079168;28;1170;-36
2023/03/31 08:00:46;;;;;;;;;;;;;;;28.24;22.43;100506.38;5079041;28;1914;-33
2023/03/31 08:03:11;;;;;;;;;;;;;;;29.01;21.45;100508.31;5078920;28;1033;-35
2023/03/31 08:05:37;;;;;;;;;;;;;;;29.27;21.22;100514.91;5079485;28;1067;-30
2023/03/31 08:08:03;;;;;;;;;;;;;;;29.18;21.42;100510.69;5078589;28;1067;-34
2023/03/31 08:10:28;;;;;;;;;;;;;;;29.17;20.96;100511.72;5078928;28;1042;-36
2023/03/31 08:12:54;;;;;;;;;;;;;;;29.21;20.97;100508.41;5079042;28;1221;-35
2023/03/31 08:15:20;;;;;;;;;;;;;;;27.90;22.34;100505.25;5078369;28;1044;-36
2023/03/31 08:17:45;;;;;;;;;;;;;;;27.99;22.25;100502.22;5065445;28;1074;-37
2023/03/31 08:20:11;;;;;;;;;;;;;;;28.99;21.45;100504.16;5078438;28;1979;-35
2023/03/31 08:22:37;;;;;;;;;;;;;;;29.26;21.24;100507.78;5078375;28;1155;-36
2023/03/31 08:25:03;;;;;;;;;;;;;;;29.36;21.11;100502.00;5078789;28;1051;-34
2023/03/31 08:27:31;;;;;;;;;;;;;;;29.36;21.05;100504.72;5076533;28;1067;-36
2023/03/31 08:29:57;;;;;;;;;;;;;;;29.32;21.17;100501.56;5066146;28;1055;-36
2023/03/31 08:32:23;;;;;;;;;;;;;;;29.30;21.01;100502.81;5077909;28;1106;-34
2023/03/31 08:34:48;;;;;;;;;;;;;;;27.52;22.87;100501.78;5058005;28;1050;-35
2023/03/31 08:37:14;;;;;;;;;;;;;;;28.36;22.23;100495.91;5058450;28;1269;-34
2023/03/31 08:39:40;;;;;;;;;;;;;;;29.53;20.88;100497.03;5065388;28;1977;-31
2023/03/31 08:42:11;;;;;;;;;;;;;;;29.26;20.76;100491.53;5078151;28;1166;-28
2023/03/31 08:44:49;;;;;;;;;;;;;;;27.28;23.51;100487.59;5060302;28;1222;-33
2023/03/31 08:47:16;;;;;;;;;;;;;;;28.23;22.52;100473.09;5059918;28;1115;-28
2023/03/31 08:49:43;;;;;;;;;;;;;;;28.89;21.45;100478.28;5060089;28;1147;-36
2023/03/31 08:52:13;;;;;;;;;;;;;;;28.80;21.90;100477.59;5055947;28;1083;-36
2023/03/31 08:54:45;;;;;;;;;;;;;;;28.94;21.61;100478.50;5051845;28;1119;-37
2023/03/31 08:57:16;;;;;;;;;;;;;;;29.00;21.58;100481.44;5060524;28;1227;-32
2023/03/31 08:59:43;;;;;;;;;;;;;;;28.98;21.70;100475.44;5077910;28;1965;-34
2023/03/31 09:02:11;;;;;;;;;;;;;;;27.77;22.97;100474.41;5078422;28;1139;-36
2023/03/31 09:04:55;;;;;;;;;;;;;;;27.67;23.16;100466.59;5075543;28;1099;-32
2023/03/31 09:07:39;;;;;;;;;;;;;;;29.13;21.57;100472.56;5077735;28;1114;-35
2023/03/31 09:10:08;;;;;;;;;;;;;;;29.14;21.46;100469.66;5078049;28;1051;-36
2023/03/31 09:12:33;;;;;;;;;;;;;;;29.10;21.51;100462.94;5078040;28;1110;-37
2023/03/31 09:15:03;;;;;;;;;;;;;;;29.21;21.47;100456.94;5070798;28;1126;-28
2023/03/31 09:17:30;;;;;;;;;;;;;;;29.21;21.26;100458.84;5058185;28;986;-36
2023/03/31 09:19:57;;;;;;;;;;;;;;;28.53;21.69;100460.41;5059793;28;1902;-34
2023/03/31 09:22:24;;;;;;;;;;;;;;;27.74;23.03;100445.88;5077523;28;1066;-36
2023/03/31 09:25:04;;;;;;;;;;;;;;;28.73;22.18;100444.25;5059588;28;1464;-34
2023/03/31 09:27:31;;;;;;;;;;;;;;;29.66;21.04;100447.44;5077261;28;1086;-34
2023/03/31 09:29:57;;;;;;;;;;;;;;;27.97;22.55;100444.84;5077752;28;1209;-35
2023/03/31 09:32:32;;;;;;;;;;;;;;;27.10;23.83;100445.66;5059609;28;1166;-33
2023/03/31 09:34:59;;;;;;;;;;;;;;;28.44;22.65;100443.50;5077423;28;1094;-35
2023/03/31 09:37:26;;;;;;;;;;;;;;;29.15;21.61;100437.97;5077519;28;1107;-30
2023/03/31 09:39:51;;;;;;;;;;;;;;;29.00;21.62;100433.56;5057896;28;1906;-33
2023/03/31 09:42:18;;;;;;;;;;;;;;;29.04;21.47;100434.00;5077064;28;1134;-34
2023/03/31 09:44:44;;;;;;;;;;;;;;;29.15;21.47;100432.53;5077357;28;1178;-33
2023/03/31 09:47:25;;;;;;;;;;;;;;;29.22;21.30;100430.69;5050263;28;909;-36
2023/03/31 09:49:51;;;;;;;;;;;;;;;27.60;23.09;100425.16;5072626;28;1099;-32
2023/03/31 09:52:29;;;;;;;;;;;;;;;28.14;22.86;100416.66;5072109;28;1286;-34
2023/03/31 09:54:57;;;;;;;;;;;;;;;29.24;21.40;100416.94;5070219;28;1214;-36
2023/03/31 09:57:26;;;;;;;;;;;;;;;29.18;21.46;100413.16;5075733;28;1320;-32
2023/03/31 09:59:51;;;;;;;;;;;;;;;29.14;21.74;100410.06;5076626;28;1980;-35
2023/03/31 10:02:17;;;;;;;;;;;;;;;29.31;21.50;100415.09;5059717;28;1242;-36
2023/03/31 10:04:44;;;;;;;;;;;;;;;29.27;21.47;100420.09;5067232;28;870;-34
2023/03/31 10:07:10;;;;;;;;;;;;;;;28.05;22.49;100410.56;5059471;28;1011;-35
2023/03/31 10:09:35;;;;;;;;;;;;;;;27.94;22.96;100404.69;5038904;28;1285;-33
2023/03/31 10:12:02;;;;;;;;;;;;;;;28.87;22.12;100406.41;5055254;28;1136;-35
2023/03/31 10:14:32;;;;;;;;;;;;;;;29.82;21.01;100412.84;5063092;28;1092;-36
2023/03/31 10:16:57;;;;;;;;;;;;;;;27.68;23.17;100398.03;5076516;28;1131;-36
2023/03/31 10:19:23;;;;;;;;;;;;;;;26.97;23.79;100395.03;5056699;28;1974;-34
2023/03/31 10:21:58;;;;;;;;;;;;;;;28.69;22.07;100383.44;5070097;28;1072;-31
2023/03/31 10:24:23;;;;;;;;;;;;;;;29.04;21.76;100391.50;5064726;28;1238;-33
2023/03/31 10:26:51;;;;;;;;;;;;;;;29.24;21.49;100377.16;5076616;28;1093;-35
2023/03/31 10:29:28;;;;;;;;;;;;;;;29.16;21.61;100375.47;5076234;28;895;-33
2023/03/31 10:31:54;;;;;;;;;;;;;;;29.16;21.68;100367.34;5076183;28;1123;-33
2023/03/31 10:34:20;;;;;;;;;;;;;;;28.93;21.77;100364.97;5058290;28;1059;-36
2023/03/31 10:36:47;;;;;;;;;;;;;;;27.68;23.16;100353.91;5058781;28;1159;-35
2023/03/31 10:39:14;;;;;;;;;;;;;;;28.54;22.34;100353.84;5066155;28;1989;-36
2023/03/31 10:41:39;;;;;;;;;;;;;;;29.68;21.04;100352.34;5054709;28;903;-35
2023/03/31 10:44:05;;;;;;;;;;;;;;;28.16;22.34;100347.78;5076142;28;1123;-36
2023/03/31 10:46:47;;;;;;;;;;;;;;;27.20;23.57;100336.50;5059154;28;1492;-34
2023/03/31 10:49:23;;;;;;;;;;;;;;;28.70;22.30;100339.09;5063063;28;1108;-32
2023/03/31 10:51:50;;;;;;;;;;;;;;;29.83;20.79;100335.88;5057197;28;1107;-35
2023/03/31 10:54:17;;;;;;;;;;;;;;;27.74;22.90;100316.16;5058234;28;1111;-35
2023/03/31 10:56:44;;;;;;;;;;;;;;;27.06;23.93;100320.16;5076079;28;1114;-32
2023/03/31 10:59:22;;;;;;;;;;;;;;;28.79;22.13;100313.53;5075760;28;2290;-36
2023/03/31 11:01:49;;;;;;;;;;;;;;;29.28;21.56;100307.16;5058174;28;1135;-36
2023/03/31 11:04:33;;;;;;;;;;;;;;;29.40;21.19;100305.47;5067876;28;1059;-36
2023/03/31 11:07:19;;;;;;;;;;;;;;;29.57;21.08;100302.31;5063636;28;1059;-35
2023/03/31 11:09:50;;;;;;;;;;;;;;;29.60;20.95;100301.06;5058292;28;1055;-37
2023/03/31 11:12:43;;;;;;;;;;;;;;;28.40;22.10;100296.13;5076424;28;1062;-35
2023/03/31 11:15:15;;;;;;;;;;;;;;;27.47;23.46;100293.50;5073235;28;1402;-32
2023/03/31 11:17:40;;;;;;;;;;;;;;;29.22;21.48;100289.84;5074185;28;1139;-33
2023/03/31 11:20:06;;;;;;;;;;;;;;;29.57;21.00;100286.91;5056109;28;1981;-32
2023/03/31 11:22:55;;;;;;;;;;;;;;;29.68;20.82;100292.72;5058025;28;1122;-35
2023/03/31 11:25:27;;;;;;;;;;;;;;;29.69;20.86;100279.00;5065717;28;1456;-34
2023/03/31 11:28:01;;;;;;;;;;;;;;;29.72;21.14;100279.59;5075786;28;1119;-36
2023/03/31 11:30:44;;;;;;;;;;;;;;;28.28;22.51;100274.22;5044227;28;972;-37
2023/03/31 11:33:28;;;;;;;;;;;;;;;27.35;24.16;100277.00;5076532;28;1019;-35
2023/03/31 11:35:55;;;;;;;;;;;;;;;29.42;21.70;100278.16;5076005;28;1123;-32
2023/03/31 11:38:21;;;;;;;;;;;;;;;29.59;21.38;100270.47;5076148;28;1190;-35
2023/03/31 11:40:46;;;;;;;;;;;;;;;29.76;21.38;100272.72;5074951;28;1968;-35
2023/03/31 11:43:24;;;;;;;;;;;;;;;29.90;21.17;100274.31;5065156;28;1068;-33
2023/03/31 11:45:54;;;;;;;;;;;;;;;30.12;20.92;100265.06;5053566;28;1242;-30
2023/03/31 11:48:23;;;;;;;;;;;;;;;30.32;20.72;100256.88;5054953;28;1237;-32
2023/03/31 11:50:49;;;;;;;;;;;;;;;30.53;20.55;100261.13;5054772;28;1284;-27
2023/03/31 11:53:19;;;;;;;;;;;;;;;30.56;20.44;100257.16;5061568;28;1297;-34
2023/03/31 11:55:46;;;;;;;;;;;;;;;30.68;20.36;100252.66;5055703;28;1230;-35
2023/03/31 11:58:16;;;;;;;;;;;;;;;30.68;20.25;100244.53;5071472;28;1212;-34
2023/03/31 12:00:43;;;;;;;;;;;;;;;28.53;22.21;100235.84;5057783;28;1894;-27
2023/03/31 12:03:10;;;;;;;;;;;;;;;27.49;23.93;100224.72;5060735;28;1130;-30
2023/03/31 12:05:37;;;;;;;;;;;;;;;29.89;21.27;100228.44;5061247;28;898;-34
2023/03/31 12:08:07;;;;;;;;;;;;;;;30.45;20.63;100217.16;5061303;28;1103;-30
2023/03/31 12:11:05;;;;;;;;;;;;;;;30.45;20.58;100217.16;5061069;28;1072;-33
2023/03/31 12:13:43;;;;;;;;;;;;;;;30.57;20.47;100222.69;5024474;28;1282;-36
2023/03/31 12:16:12;;;;;;;;;;;;;;;28.73;22.41;100215.03;5059528;28;1239;-34
2023/03/31 12:18:40;;;;;;;;;;;;;;;27.67;23.54;100207.19;5068549;28;993;-34
2023/03/31 12:21:05;;;;;;;;;;;;;;;29.79;21.34;100216.19;5041086;28;1971;-35
2023/03/31 12:23:35;;;;;;;;;;;;;;;30.28;20.96;100217.66;5063929;28;1293;-34
2023/03/31 12:26:06;;;;;;;;;;;;;;;30.42;20.47;100211.09;5043156;28;1395;-36
2023/03/31 12:28:33;;;;;;;;;;;;;;;30.56;20.29;100200.16;5057826;28;1155;-35
2023/03/31 12:30:59;;;;;;;;;;;;;;;30.35;20.37;100202.16;5041409;28;1265;-31
2023/03/31 12:33:28;;;;;;;;;;;;;;;28.23;22.39;100199.94;5069461;28;1016;-33
2023/03/31 12:35:53;;;;;;;;;;;;;;;29.47;21.75;100199.78;5078900;28;1071;-35
2023/03/31 12:38:45;;;;;;;;;;;;;;;30.25;20.73;100194.50;5077484;28;1134;-30
2023/03/31 12:41:14;;;;;;;;;;;;;;;30.62;20.26;100190.28;5039846;28;1342;-34
2023/03/31 12:43:58;;;;;;;;;;;;;;;30.84;20.05;100182.63;5078607;28;1105;-32
2023/03/31 12:46:31;;;;;;;;;;;;;;;30.95;19.90;100182.97;5060947;28;1214;-28
2023/03/31 12:49:15;;;;;;;;;;;;;;;31.02;20.01;100179.13;5055461;28;1171;-32
2023/03/31 12:51:47;;;;;;;;;;;;;;;29.78;20.85;100173.03;5060318;28;1226;-34
2023/03/31 12:54:19;;;;;;;;;;;;;;;28.05;22.09;100175.31;5069272;28;1294;-30
2023/03/31 12:57:03;;;;;;;;;;;;;;;29.47;21.33;100169.97;5040841;28;1194;-35